Terminal Aerodrome Forecast
Issued by NWS Albuquerque, NM

Home | Current Version | Previous Version | Text Only | Print | Product List | Glossary On
Versions: 1 2 3 4 5 6 7 8 9 10 11 12 13
107
FTUS45 KABQ 131740
TAFABQ
TAF
KABQ 131740Z 1318/1418 VRB04KT P6SM SKC
     FM140200 12006KT P6SM SCT200
     FM141100 08010G16KT P6SM SCT150
     FM141600 08020G30KT P6SM BKN110=

USA.gov is the U.S. government's official web portal to all federal, state and local government web resources and services.